• Join FlightAware (Why Join?)
  • Login
  • US Flag 
11:43AM EDT


 

Airport Tracker/Info


-or-


 

Live Flight TrackerFlight Track Log ✈ N629SA ✈ 23-Oct-2013 ✈ KAPF - KJAX

Flight Track Log - Related Links

Times and Time Zones

All times are in EDT time to prevent confusion due to time zone crossing. See the N629SA flight status page for this flight to view local times or setup timezone preferences in your user account.

Time Position Orientation Groundspeed Altitude Reporting Facility
EDT Latitude Longitude Course Direction KTS MPH feet Rate Location/Type
07:31PM 26.3679 -81.7714 355° North  Level Estimated
07:32PM 26.4036 -81.7760 353° North  Level FlightAware Approximate
07:33PM 26.4393 -81.7807 353° North  Level FlightAware Approximate
07:34PM 26.4750 -81.7853 353° North  Level FlightAware Approximate
07:35PM 26.5107 -81.7899 353° North  Level FlightAware Approximate
07:36PM 26.5463 -81.7945 353° North  Level FlightAware Approximate
07:37PM 26.5820 -81.7992 353° North  Level FlightAware Approximate
07:38PM 26.6177 -81.8038 353° North  Level FlightAware Approximate
07:39PM 26.6534 -81.8084 353° North  Level FlightAware Approximate
07:40PM 26.6891 -81.8131 353° North  Level FlightAware Approximate
07:41PM 26.7247 -81.8177 353° North  Level FlightAware Approximate
07:42PM 26.7604 -81.8223 353° North  Level FlightAware Approximate
07:42PM 26.7664 -81.8839 354° North 150 173 8,000  Level Miami Center
07:43PM 26.7961 -81.8270 353° North  Level FlightAware Approximate
07:43PM 26.8081 -81.8858 358° North 150 173 8,000  Level Miami Center
07:44PM 26.8318 -81.8316 353° North  Level FlightAware Approximate
07:44PM 26.8478 -81.8897 355° North 150 173 8,000  Level Miami Center
07:45PM 26.8675 -81.8363 353° North  Level FlightAware Approximate
07:45PM 26.8914 -81.8939 355° North 150 173 8,000  Level Miami Center
07:46PM 26.9031 -81.8409 353° North  Level FlightAware Approximate
07:46PM 26.9289 -81.8981 354° North 150 173 8,000  Level Miami Center
07:47PM 26.9390 -81.8395 354° North  Level Estimated
07:47PM 26.9706 -81.8997 358° North 150 173 8,000  Level Miami Center
07:48PM 27.0017 -81.9036 354° North 150 173 8,000 -60 Level Miami Center
07:49PM 27.0475 -81.9056 358° North 150 173 7,900 -60 Descending Miami Center
07:50PM 27.0892 -81.9097 355° North 145 167 7,900  Level Miami Center
07:51PM 27.1308 -81.9114 358° North 140 161 7,900  Level Miami Center
07:52PM 27.1703 -81.9156 355° North 140 161 7,900  Level Miami Center
07:53PM 27.2119 -81.9172 358° North 140 161 7,900  Level Miami Center
07:54PM 27.2514 -81.9214 355° North 140 161 7,900  Level Miami Center
07:55PM 27.2931 -81.9256 355° North 140 161 7,900  Level Miami Center
07:56PM 27.3347 -81.9297 355° North 140 161 7,900  Level Miami Center
07:57PM 27.3764 -81.9314 358° North 140 161 7,900  Level Miami Center
07:58PM 27.4203 -81.9333 358° North 140 161 7,900  Level Miami Center
07:59PM 27.4617 -81.9375 355° North 140 161 7,900  Level Miami Center
08:00PM 27.5033 -81.9417 355° North 140 161 7,900  Level Miami Center
08:01PM 27.5492 -81.9439 358° North 145 167 8,000  Climbing Miami Center
08:02PM 27.5889 -81.9456 358° North 145 167 8,000  Level Miami Center
08:03PM 27.6303 -81.9497 355° North 140 161 8,000  Level Miami Center
08:04PM 27.6761 -81.9519 358° North 145 167 8,000  Level Miami Center
08:05PM 27.7178 -81.9536 358° North 145 167 8,000  Level Miami Center
08:06PM 27.7594 -81.9578 355° North 145 167 8,000  Level Miami Center
08:07PM 27.7989 -81.9597 358° North 145 167 8,000 -60 Level Miami Center
08:08PM 27.8447 -81.9617 358° North 150 173 7,900 -60 Descending Miami Center
08:09PM 27.8864 -81.9636 358° North 150 173 7,900  Level Miami Center
08:10PM 27.9167 -81.9667 355° North 145 167 8,000  Climbing Tampa TRACON
08:11PM 27.9500 -81.9667 360° North 144 166 8,000  Level Tampa TRACON
08:12PM 28.0000 -81.9667 360° North 143 165 8,000  Level Tampa TRACON
08:13PM 28.0500 -81.9667 360° North 146 168 8,000  Level Tampa TRACON
08:14PM 28.0833 -81.9833 336° Northwest 144 166 8,000  Level Tampa TRACON
08:15PM 28.1333 -81.9833 360° North 145 167 8,000  Level Tampa TRACON
08:16PM 28.1667 -81.9833 360° North 145 167 8,000  Level Tampa TRACON
08:17PM 28.2000 -82.0000 336° Northwest 144 166 8,000  Level Tampa TRACON
08:18PM 28.2333 -82.0000 360° North 143 165 8,000  Level Tampa TRACON
08:19PM 28.2667 -82.0167 336° Northwest 141 162 8,000  Level Tampa TRACON
08:20PM 28.3167 -82.0333 344° North 142 163 8,000  Level Tampa TRACON
08:21PM 28.3500 -82.0333 360° North 141 162 8,000  Level Tampa TRACON
08:22PM 28.3833 -82.0500 336° Northwest 145 167 8,000  Level Tampa TRACON
08:23PM 28.4333 -82.0500 360° North 144 166 8,000  Level Tampa TRACON
08:24PM 28.4667 -82.0667 336° Northwest 143 165 8,000  Level Tampa TRACON
08:25PM 28.5022 -82.0775 345° North 141 162 8,000  Level Jacksonville Center
08:26PM 28.5481 -82.0867 350° North 141 162 8,000  Level Jacksonville Center
08:27PM 28.5814 -82.0936 350° North 141 162 8,000  Level Jacksonville Center
08:28PM 28.6233 -82.1028 349° North 143 165 8,000  Level Jacksonville Center
08:29PM 28.6631 -82.1000 North 147 169 8,000  Level Jacksonville Center
08:30PM 28.7025 -82.0878 15° North 150 173 8,000  Level Jacksonville Center
08:31PM 28.7442 -82.0803 North 151 174 8,000  Level Jacksonville Center
08:32PM 28.7839 -82.0706 12° North 150 173 8,000  Level Jacksonville Center
08:33PM 28.8275 -82.0608 11° North 148 170 8,000  Level Jacksonville Center
08:34PM 28.8714 -82.0508 11° North 147 169 8,000  Level Jacksonville Center
08:35PM 28.9108 -82.0433 North 147 169 8,000  Level Jacksonville Center
08:36PM 28.9506 -82.0361 North 148 170 8,000  Level Jacksonville Center
08:37PM 28.9922 -82.0261 12° North 149 171 8,000  Level Jacksonville Center
08:38PM 29.0297 -82.0164 13° North 148 170 8,000  Level Jacksonville Center
08:39PM 29.0756 -82.0064 11° North 151 174 8,000  Level Jacksonville Center
08:40PM 29.1214 -81.9989 North 153 176 8,000  Level Jacksonville Center
08:41PM 29.1589 -81.9889 13° North 151 174 8,000  Level Jacksonville Center
08:42PM 29.2006 -81.9792 12° North 150 173 8,000  Level Jacksonville Center
08:43PM 29.2403 -81.9692 12° North 149 171 8,000  Level Jacksonville Center
08:44PM 29.2839 -81.9617 North 149 171 8,000  Level Jacksonville Center
08:45PM 29.3214 -81.9542 10° North 149 171 8,000  Level Jacksonville Center
08:46PM 29.3653 -81.9442 11° North 148 170 8,000  Level Jacksonville Center
08:47PM 29.4050 -81.9342 12° North 148 170 8,000  Level Jacksonville Center
08:48PM 29.4467 -81.9244 11° North 148 170 8,000  Level Jacksonville Center
08:50PM 29.4944 -81.9119 13° North 147 169 8,000  Level Jacksonville Center
08:50PM 29.5300 -81.9069 North 148 170 8,000  Level Jacksonville Center
08:51PM 29.5694 -81.8992 10° North 147 169 8,000  Level Jacksonville Center
08:52PM 29.6111 -81.8869 14° North 148 170 8,000  Level Jacksonville Center
08:53PM 29.6486 -81.8794 10° North 146 168 8,000  Level Jacksonville Center
08:54PM 29.6903 -81.8694 12° North 145 167 8,000  Level Jacksonville Center
08:55PM 29.7278 -81.8642 North 145 167 8,000  Level Jacksonville Center
08:56PM 29.7739 -81.8542 11° North 144 166 8,000  Level Jacksonville Center
08:57PM 29.8133 -81.8442 12° North 144 166 8,000 -60 Level Jacksonville Center
08:58PM 29.8531 -81.8342 12° North 144 166 7,900 -300 Descending Jacksonville Center
08:59PM 29.8906 -81.8264 10° North 151 174 7,500 -420 Descending Jacksonville Center
09:00PM 29.9322 -81.8164 12° North 151 174 7,100 -480 Descending Jacksonville Center
09:01PM 29.9739 -81.8089 North 149 171 6,600 -540 Descending Jacksonville Center
09:02PM 30.0156 -81.7986 12° North 149 171 6,100 -480 Descending Jacksonville Center
09:03PM 30.0531 -81.7886 13° North 139 160 5,700 -480 Descending Jacksonville Center
09:04PM 30.0906 -81.7811 10° North 134 154 5,200 -420 Descending Jacksonville Center
09:05PM 30.1236 -81.7664 21° North 128 147 4,900 -180 Descending Jacksonville Center
09:07PM 30.1592 -81.7514 20° North 119 137 4,900  Level Jacksonville Center
09:08PM 30.1903 -81.7392 19° North 119 137 4,900  Level Jacksonville Center
09:09PM 30.2194 -81.7267 20° North 119 137 5,000  Climbing Jacksonville Center
09:10PM 30.2528 -81.7119 21° North 119 137 5,000  Level Jacksonville Center
09:11PM 30.2858 -81.6969 21° North 120 138 5,000  Level Jacksonville Center
09:12PM 30.3214 -81.6869 14° North 122 140 5,000 -240 Level Jacksonville Center
09:13PM 30.3503 -81.6553 43° Northeast 134 154 4,500 -540 Descending Jacksonville Center
09:14PM 30.3750 -81.6236 48° Northeast 136 157 4,000 -360 Descending Jacksonville Center
09:15PM 30.3997 -81.5969 43° Northeast 134 154 3,900  Descending Jacksonville Center
09:16PM 30.4225 -81.5653 50° Northeast 130 150 4,000  Climbing Jacksonville Center
09:17PM 30.4472 -81.5336 48° Northeast 131 151 4,000 -60 Level Jacksonville Center
09:18PM 30.4783 -81.5186 23° Northeast 120 138 3,900 -300 Descending Jacksonville Center
09:19PM 30.5181 -81.5108 10° North 133 153 3,400 -600 Descending Jacksonville Center
09:20PM 30.5472 -81.5272 334° Northwest 144 166 2,800 -960 Descending Jacksonville Center
09:21PM 30.5353 -81.5614 248° West 166 191 1,700 -840 Descending Jacksonville Center
09:22PM 30.5231 -81.6072 253° West 108 124 1,200 -600 Descending Jacksonville Center
09:23PM 30.5150 -81.6386 253° West 96 110 500 -540 Descending Jacksonville Center
09:24PM 30.5069 -81.6678 252° West 86 99 100 -420 Descending Jacksonville Center
09:26PM 30.4833 -81.6833 277° West  Level FlightAware Approximate